Time;durP1;ratioP1;P1;durP2;ratioP2;P2;SDS_P1;SDS_P2;PMS_P1;PMS_P2;Temp;Humidity;BMP_temperature;BMP_pressure;BME280_temperature;BME280_humidity;BME280_pressure;Samples;Min_cycle;Max_cycle;Signal;HPM_P1;HPM_P2
2021/11/14 03:41:22;;;;;;;22.53;9.27;;;;;;;;;;6185714;22;1414512;-91
2021/11/14 03:44:28;;;;;;;22.03;8.90;;;;;;;;;;6226058;23;20807;-91
2021/11/14 03:47:33;;;;;;;20.30;8.80;;;;;;;;;;6227889;23;20194;-89
2021/11/14 03:50:38;;;;;;;21.93;8.43;;;;;;;;;;6228133;23;20250;-91
2021/11/14 03:53:44;;;;;;;20.13;9.03;;;;;;;;;;6228460;23;20238;-91
2021/11/14 03:56:51;;;;;;;24.03;9.60;;;;;;;;;;6225478;23;20176;-91
2021/11/14 03:59:56;;;;;;;23.70;9.87;;;;;;;;;;6227032;23;20163;-91
2021/11/14 04:03:02;;;;;;;24.83;9.57;;;;;;;;;;6225899;23;20178;-90
2021/11/14 04:06:08;;;;;;;20.10;9.47;;;;;;;;;;6227084;23;20175;-92
2021/11/14 04:09:13;;;;;;;21.93;9.23;;;;;;;;;;6225579;23;20183;-91
2021/11/14 04:12:20;;;;;;;24.93;10.17;;;;;;;;;;6225043;23;20182;-92
2021/11/14 04:15:25;;;;;;;21.43;9.10;;;;;;;;;;6225368;23;20170;-91
2021/11/14 04:18:30;;;;;;;20.13;8.67;;;;;;;;;;6226800;23;20171;-91
2021/11/14 04:21:35;;;;;;;20.43;8.33;;;;;;;;;;6225799;23;20171;-91
2021/11/14 04:24:41;;;;;;;19.03;8.80;;;;;;;;;;6225353;23;20163;-92
2021/11/14 04:27:51;;;;;;;24.77;9.33;;;;;;;;;;6227344;23;20182;-91
2021/11/14 04:30:56;;;;;;;19.90;8.47;;;;;;;;;;6227113;23;20175;-92
2021/11/14 04:34:41;;;;;;;23.13;8.67;;;;;;;;;;6225838;23;20179;-92
2021/11/14 04:37:49;;;;;;;21.90;8.70;;;;;;;;;;6227793;23;20162;-90
2021/11/14 04:40:54;;;;;;;22.97;9.13;;;;;;;;;;6227875;23;20190;-92
2021/11/14 04:44:00;;;;;;;20.83;8.63;;;;;;;;;;6228131;23;20171;-92
2021/11/14 04:47:06;;;;;;;22.20;8.77;;;;;;;;;;6227896;23;20163;-91
2021/11/14 04:50:11;;;;;;;19.20;8.70;;;;;;;;;;6228384;23;20168;-90
2021/11/14 04:53:18;;;;;;;24.80;9.57;;;;;;;;;;6225434;23;20179;-93
2021/11/14 04:56:23;;;;;;;22.73;9.50;;;;;;;;;;6226211;23;20155;-91
2021/11/14 04:59:30;;;;;;;19.20;8.33;;;;;;;;;;6227268;23;20174;-90
2021/11/14 05:02:35;;;;;;;20.40;9.37;;;;;;;;;;6227613;23;20210;-91
2021/11/14 05:05:41;;;;;;;21.17;8.43;;;;;;;;;;6228527;23;20147;-90
2021/11/14 05:08:46;;;;;;;24.00;8.80;;;;;;;;;;6228812;23;20351;-92
2021/11/14 05:11:51;;;;;;;20.10;8.70;;;;;;;;;;6227609;23;20166;-91
2021/11/14 05:14:58;;;;;;;21.23;8.90;;;;;;;;;;6225884;23;20159;-91
2021/11/14 05:18:04;;;;;;;21.27;8.37;;;;;;;;;;6227233;23;20158;-91
2021/11/14 05:21:09;;;;;;;19.53;8.33;;;;;;;;;;6226435;23;20231;-91
2021/11/14 05:24:15;;;;;;;19.53;7.93;;;;;;;;;;6228059;23;20167;-90
2021/11/14 05:27:20;;;;;;;20.67;8.50;;;;;;;;;;6228696;23;20277;-92
2021/11/14 05:30:26;;;;;;;20.17;8.30;;;;;;;;;;6227787;23;20177;-90
2021/11/14 05:33:32;;;;;;;18.87;8.00;;;;;;;;;;6227492;23;20171;-91
2021/11/14 05:36:37;;;;;;;20.03;8.27;;;;;;;;;;6227905;23;20240;-92
2021/11/14 05:39:42;;;;;;;21.30;8.43;;;;;;;;;;6227617;23;20179;-93
2021/11/14 05:42:47;;;;;;;19.53;7.43;;;;;;;;;;6227903;23;20224;-89
2021/11/14 05:45:53;;;;;;;16.23;7.17;;;;;;;;;;6227953;23;20175;-89
2021/11/14 05:48:59;;;;;;;18.10;7.63;;;;;;;;;;6227156;23;20199;-91
2021/11/14 05:52:04;;;;;;;18.70;7.70;;;;;;;;;;6227613;23;20243;-92
2021/11/14 05:55:10;;;;;;;18.20;8.33;;;;;;;;;;6229056;23;20171;-91
2021/11/14 05:58:19;;;;;;;17.07;7.40;;;;;;;;;;6227620;23;20210;-90
2021/11/14 06:01:29;;;;;;;18.33;8.00;;;;;;;;;;6227849;23;20171;-91
2021/11/14 06:04:38;;;;;;;19.23;8.07;;;;;;;;;;6225631;23;20176;-90
2021/11/14 06:07:44;;;;;;;20.50;7.67;;;;;;;;;;6226886;23;20222;-90
2021/11/14 06:10:50;;;;;;;23.00;9.10;;;;;;;;;;6231782;23;20172;-90
2021/11/14 06:13:56;;;;;;;20.17;7.90;;;;;;;;;;6227351;23;20171;-91
2021/11/14 06:17:02;;;;;;;20.60;7.90;;;;;;;;;;6227586;23;20151;-90
2021/11/14 06:20:08;;;;;;;20.17;8.37;;;;;;;;;;6226602;23;20171;-90
2021/11/14 06:23:14;;;;;;;20.10;8.60;;;;;;;;;;6228734;23;20217;-88
2021/11/14 06:26:19;;;;;;;24.43;7.97;;;;;;;;;;6226767;23;20246;-93
2021/11/14 06:29:25;;;;;;;20.60;7.97;;;;;;;;;;6228618;23;20267;-92
2021/11/14 06:32:32;;;;;;;18.73;8.83;;;;;;;;;;6228199;23;20254;-91
2021/11/14 06:35:38;;;;;;;16.10;7.87;;;;;;;;;;6226150;23;20178;-90
2021/11/14 06:38:43;;;;;;;19.07;7.70;;;;;;;;;;6227131;23;20167;-89
2021/11/14 06:41:48;;;;;;;19.93;8.73;;;;;;;;;;6227033;23;20701;-92
2021/11/14 06:44:53;;;;;;;16.93;7.83;;;;;;;;;;6226670;23;20182;-92
2021/11/14 06:48:00;;;;;;;18.43;8.93;;;;;;;;;;6227593;23;20273;-90
2021/11/14 06:51:05;;;;;;;22.67;8.67;;;;;;;;;;6228333;23;20267;-90
2021/11/14 06:54:10;;;;;;;73.60;29.73;;;;;;;;;;6227814;23;20163;-91
2021/11/14 06:57:15;;;;;;;20.70;8.87;;;;;;;;;;6227770;23;20174;-89
2021/11/14 07:00:22;;;;;;;19.43;8.20;;;;;;;;;;6228664;23;20175;-91
2021/11/14 07:03:38;;;;;;;16.67;7.77;;;;;;;;;;6228877;23;20289;-92
2021/11/14 07:06:43;;;;;;;18.83;7.40;;;;;;;;;;6228182;23;20168;-92
2021/11/14 07:09:48;;;;;;;17.30;7.70;;;;;;;;;;6228372;23;20194;-91
2021/11/14 07:12:54;;;;;;;20.23;8.50;;;;;;;;;;6227226;23;20171;-89
2021/11/14 07:15:59;;;;;;;19.87;8.30;;;;;;;;;;6227528;23;20630;-89
2021/11/14 07:19:06;;;;;;;17.87;8.33;;;;;;;;;;6228762;23;20174;-91
2021/11/14 07:22:14;;;;;;;17.90;8.40;;;;;;;;;;6229286;23;20182;-90
2021/11/14 07:25:19;;;;;;;23.67;9.10;;;;;;;;;;6235831;23;20175;-91
2021/11/14 07:28:25;;;;;;;20.27;10.03;;;;;;;;;;6228900;23;20631;-91
2021/11/14 07:31:30;;;;;;;20.93;9.07;;;;;;;;;;6228433;23;20194;-90
2021/11/14 07:34:37;;;;;;;19.80;9.13;;;;;;;;;;6225425;23;20164;-91
2021/11/14 07:37:42;;;;;;;21.77;8.80;;;;;;;;;;6230174;23;20150;-91
2021/11/14 07:40:48;;;;;;;22.90;9.77;;;;;;;;;;6226896;23;20349;-91
2021/11/14 07:43:53;;;;;;;20.90;8.53;;;;;;;;;;6226873;23;20166;-91
2021/11/14 07:47:00;;;;;;;21.83;9.70;;;;;;;;;;6227588;23;20685;-91
2021/11/14 07:50:12;;;;;;;23.47;9.53;;;;;;;;;;6226968;23;20255;-91
2021/11/14 07:53:17;;;;;;;19.93;9.07;;;;;;;;;;6228916;23;20209;-91
2021/11/14 07:56:27;;;;;;;23.60;9.23;;;;;;;;;;6228184;23;20175;-91
2021/11/14 07:59:33;;;;;;;24.13;9.83;;;;;;;;;;6230110;23;20170;-91
2021/11/14 08:02:38;;;;;;;23.10;9.20;;;;;;;;;;6228870;23;20172;-91
2021/11/14 08:05:46;;;;;;;22.70;9.57;;;;;;;;;;6226715;23;20210;-92
2021/11/14 08:08:51;;;;;;;21.10;9.50;;;;;;;;;;6227435;23;20199;-90
2021/11/14 08:11:57;;;;;;;21.13;9.77;;;;;;;;;;6229383;23;20167;-90
2021/11/14 08:15:02;;;;;;;23.10;10.23;;;;;;;;;;6227802;23;20194;-91
2021/11/14 08:18:07;;;;;;;22.30;9.97;;;;;;;;;;6228608;23;20319;-89
2021/11/14 08:21:14;;;;;;;23.20;9.83;;;;;;;;;;6230187;23;20166;-90
2021/11/14 08:24:19;;;;;;;27.87;9.90;;;;;;;;;;6230141;23;20182;-90
2021/11/14 08:27:24;;;;;;;21.73;9.77;;;;;;;;;;6231417;23;20171;-90
2021/11/14 08:30:29;;;;;;;25.47;10.27;;;;;;;;;;6229845;23;20163;-90
2021/11/14 08:33:35;;;;;;;18.80;9.80;;;;;;;;;;6229936;23;20473;-91
2021/11/14 08:36:42;;;;;;;22.45;9.40;;;;;;;;;;6230815;23;20218;-91
2021/11/14 08:39:49;;;;;;;21.07;9.23;;;;;;;;;;6229653;23;20175;-90
2021/11/14 08:42:55;;;;;;;18.30;8.60;;;;;;;;;;6227915;23;20167;-90
2021/11/14 08:46:01;;;;;;;18.97;9.63;;;;;;;;;;6230423;23;20166;-91
2021/11/14 08:49:07;;;;;;;18.50;8.90;;;;;;;;;;6230014;23;20214;-90
2021/11/14 08:52:14;;;;;;;18.93;8.23;;;;;;;;;;6231317;23;20186;-90
2021/11/14 08:55:20;;;;;;;17.90;8.52;;;;;;;;;;6232675;23;20222;-89
2021/11/14 08:58:26;;;;;;;20.42;10.15;;;;;;;;;;6231282;23;20222;-91
2021/11/14 09:01:32;;;;;;;18.98;8.57;;;;;;;;;;6231123;23;20167;-89
2021/11/14 09:04:37;;;;;;;18.40;8.52;;;;;;;;;;6231862;23;20203;-89
2021/11/14 09:07:45;;;;;;;21.85;9.50;;;;;;;;;;6233133;23;20163;-88
2021/11/14 09:10:51;;;;;;;23.58;10.13;;;;;;;;;;6229751;23;20214;-89
2021/11/14 09:13:56;;;;;;;24.70;10.45;;;;;;;;;;6230093;23;20197;-89
2021/11/14 09:17:03;;;;;;;27.75;12.38;;;;;;;;;;6230080;23;20186;-88
2021/11/14 09:20:09;;;;;;;26.23;12.85;;;;;;;;;;6230500;23;20175;-89
2021/11/14 09:23:16;;;;;;;36.97;15.02;;;;;;;;;;6229543;23;20622;-90
2021/11/14 09:26:22;;;;;;;41.30;15.32;;;;;;;;;;6229903;23;20215;-89
2021/11/14 09:29:27;;;;;;;36.58;15.40;;;;;;;;;;6231083;23;20218;-90
2021/11/14 09:32:35;;;;;;;41.08;16.70;;;;;;;;;;6229132;23;20210;-89
2021/11/14 09:35:40;;;;;;;41.28;17.42;;;;;;;;;;6229862;23;20167;-90
2021/11/14 09:38:47;;;;;;;48.08;18.52;;;;;;;;;;6229735;23;20240;-89
2021/11/14 09:41:52;;;;;;;44.22;18.45;;;;;;;;;;6229788;23;20194;-89
2021/11/14 09:44:58;;;;;;;41.63;18.10;;;;;;;;;;6230114;23;20192;-91
2021/11/14 09:48:04;;;;;;;47.22;18.75;;;;;;;;;;6229762;23;20178;-92
2021/11/14 09:51:09;;;;;;;38.78;15.85;;;;;;;;;;6231546;23;20174;-92
2021/11/14 09:54:16;;;;;;;41.85;17.25;;;;;;;;;;6231522;23;20491;-89
2021/11/14 09:57:34;;;;;;;43.63;17.25;;;;;;;;;;6232618;23;20171;-89
2021/11/14 10:00:40;;;;;;;56.17;17.80;;;;;;;;;;6234295;23;20171;-91
2021/11/14 10:03:45;;;;;;;47.22;18.33;;;;;;;;;;6231728;23;20163;-92
2021/11/14 10:06:57;;;;;;;38.70;15.48;;;;;;;;;;6231013;23;20178;-92
2021/11/14 10:10:05;;;;;;;53.17;21.40;;;;;;;;;;6228832;23;20194;-90
2021/11/14 10:13:15;;;;;;;50.83;19.23;;;;;;;;;;6230842;23;20175;-91
2021/11/14 10:16:21;;;;;;;52.67;21.08;;;;;;;;;;6231041;23;20226;-89
2021/11/14 10:19:26;;;;;;;57.88;21.10;;;;;;;;;;6230718;23;20173;-89
2021/11/14 10:22:32;;;;;;;56.90;20.90;;;;;;;;;;6230006;23;20195;-90
2021/11/14 10:25:39;;;;;;;55.65;22.23;;;;;;;;;;6232033;23;20182;-91
2021/11/14 10:28:46;;;;;;;58.75;22.27;;;;;;;;;;6229433;23;20199;-90
2021/11/14 10:31:51;;;;;;;63.65;22.27;;;;;;;;;;6231610;23;20175;-90
2021/11/14 10:34:59;;;;;;;62.75;23.25;;;;;;;;;;6231964;23;20170;-92
2021/11/14 10:38:06;;;;;;;63.33;23.55;;;;;;;;;;6231030;23;20240;-89
2021/11/14 10:41:14;;;;;;;59.90;21.20;;;;;;;;;;6228460;23;20216;-89
2021/11/14 10:44:21;;;;;;;56.63;22.73;;;;;;;;;;6230184;23;20240;-90
2021/11/14 10:47:30;;;;;;;56.08;21.83;;;;;;;;;;6231191;23;20175;-92
2021/11/14 10:50:36;;;;;;;60.85;22.38;;;;;;;;;;6230302;23;20195;-90
2021/11/14 10:53:45;;;;;;;56.58;20.42;;;;;;;;;;6229482;23;20227;-90
2021/11/14 10:57:00;;;;;;;51.92;20.05;;;;;;;;;;6230446;23;20163;-90
2021/11/14 11:00:07;;;;;;;49.40;18.60;;;;;;;;;;6228687;23;20163;-90
2021/11/14 11:03:13;;;;;;;55.72;21.83;;;;;;;;;;6231061;23;20191;-89
2021/11/14 11:06:20;;;;;;;52.30;20.75;;;;;;;;;;6232280;23;20620;-92
2021/11/14 11:09:31;;;;;;;54.72;21.40;;;;;;;;;;6234435;23;20227;-90
2021/11/14 11:12:42;;;;;;;57.85;22.40;;;;;;;;;;6233362;23;20209;-91
2021/11/14 11:15:49;;;;;;;58.45;22.27;;;;;;;;;;6232250;23;20176;-89
2021/11/14 11:18:58;;;;;;;61.88;22.20;;;;;;;;;;6233356;23;20171;-89
2021/11/14 11:22:05;;;;;;;65.05;23.70;;;;;;;;;;6231453;23;20171;-89
2021/11/14 11:25:10;;;;;;;64.55;23.60;;;;;;;;;;6231531;23;20237;-90
2021/11/14 11:28:20;;;;;;;65.32;24.88;;;;;;;;;;6230301;23;20175;-89
2021/11/14 11:31:25;;;;;;;62.38;24.55;;;;;;;;;;6231859;23;20161;-89
2021/11/14 11:34:30;;;;;;;67.47;23.90;;;;;;;;;;6230745;23;20183;-90
2021/11/14 11:37:35;;;;;;;71.82;26.13;;;;;;;;;;6229493;23;20168;-90
2021/11/14 11:40:44;;;;;;;76.05;25.08;;;;;;;;;;6232956;23;20194;-90
2021/11/14 11:43:54;;;;;;;70.35;24.75;;;;;;;;;;6232687;23;20167;-89
2021/11/14 11:47:03;;;;;;;71.32;25.75;;;;;;;;;;6234718;23;20253;-89
2021/11/14 11:50:09;;;;;;;69.30;25.08;;;;;;;;;;6234362;23;20322;-90
2021/11/14 11:53:24;;;;;;;60.55;23.02;;;;;;;;;;6232568;23;20167;-90
2021/11/14 11:56:37;;;;;;;64.35;25.25;;;;;;;;;;6234584;23;20176;-88
2021/11/14 11:59:46;;;;;;;59.30;23.35;;;;;;;;;;6234377;23;20179;-91
2021/11/14 12:02:52;;;;;;;59.83;22.00;;;;;;;;;;6233429;23;20210;-89
2021/11/14 12:05:58;;;;;;;58.75;21.98;;;;;;;;;;6234962;23;20212;-90
2021/11/14 12:09:10;;;;;;;58.90;21.77;;;;;;;;;;6233653;23;20180;-89
2021/11/14 12:12:22;;;;;;;57.70;22.27;;;;;;;;;;6233538;23;20256;-91
2021/11/14 12:15:32;;;;;;;52.28;20.27;;;;;;;;;;6234878;23;20162;-89
2021/11/14 12:18:42;;;;;;;56.30;21.83;;;;;;;;;;6235393;23;20170;-89
2021/11/14 12:21:54;;;;;;;60.65;22.23;;;;;;;;;;6235024;23;20171;-90
2021/11/14 12:25:01;;;;;;;62.75;22.55;;;;;;;;;;6233796;23;20172;-89
2021/11/14 12:28:08;;;;;;;53.53;20.95;;;;;;;;;;6234001;23;20167;-90
2021/11/14 12:31:17;;;;;;;54.28;20.60;;;;;;;;;;6234798;23;20194;-89
2021/11/14 12:34:26;;;;;;;55.15;20.35;;;;;;;;;;6235315;23;20175;-89
2021/11/14 12:37:32;;;;;;;56.28;21.65;;;;;;;;;;6233332;23;20216;-88
2021/11/14 12:40:40;;;;;;;59.33;20.10;;;;;;;;;;6235022;23;20237;-91
2021/11/14 12:43:47;;;;;;;52.42;20.10;;;;;;;;;;6235316;23;20690;-90
2021/11/14 12:46:53;;;;;;;54.65;19.90;;;;;;;;;;6232274;23;20236;-88
2021/11/14 12:50:08;;;;;;;54.03;20.70;;;;;;;;;;6233317;23;20191;-89
2021/11/14 12:53:14;;;;;;;58.55;21.40;;;;;;;;;;6233494;22;20188;-90
2021/11/14 12:56:25;;;;;;;62.10;22.58;;;;;;;;;;6232089;23;20184;-92
2021/11/14 12:59:31;;;;;;;53.75;22.52;;;;;;;;;;6234368;23;20190;-90
2021/11/14 13:02:49;;;;;;;53.28;18.75;;;;;;;;;;6234178;23;20191;-89
2021/11/14 13:05:56;;;;;;;58.13;20.42;;;;;;;;;;6234255;23;20191;-90
2021/11/14 13:09:08;;;;;;;59.67;20.50;;;;;;;;;;6234867;23;20191;-89
2021/11/14 19:13:33;;;;;;;68.73;25.97;;;;;;;;;;6186971;23;20156;-91
2021/11/14 19:16:38;;;;;;;69.33;25.03;;;;;;;;;;6169980;23;20160;-91
2021/11/14 19:19:44;;;;;;;80.63;29.40;;;;;;;;;;6186973;23;20177;-91
2021/11/14 19:22:49;;;;;;;78.30;28.77;;;;;;;;;;6170473;23;20216;-90
2021/11/14 19:25:55;;;;;;;85.97;28.50;;;;;;;;;;6170469;23;20242;-90
2021/11/14 19:29:02;;;;;;;73.30;25.63;;;;;;;;;;6170945;23;20176;-90
2021/11/14 19:32:08;;;;;;;90.33;31.60;;;;;;;;;;6189477;23;20173;-89
2021/11/14 19:35:15;;;;;;;94.47;28.33;;;;;;;;;;6171269;23;20200;-89
2021/11/14 19:38:21;;;;;;;87.43;27.37;;;;;;;;;;6170326;23;20168;-89
2021/11/14 19:41:27;;;;;;;79.83;27.93;;;;;;;;;;6188194;23;20469;-91
2021/11/14 19:44:34;;;;;;;72.73;24.97;;;;;;;;;;6204375;22;20221;-91
2021/11/14 19:47:40;;;;;;;68.03;26.17;;;;;;;;;;6243920;23;20174;-91
2021/11/14 19:50:48;;;;;;;87.13;26.67;;;;;;;;;;6244180;22;20221;-90
2021/11/14 19:53:54;;;;;;;87.50;26.27;;;;;;;;;;6245862;23;20175;-90
2021/11/14 19:56:59;;;;;;;88.10;29.83;;;;;;;;;;6244560;22;20206;-89
2021/11/14 20:00:07;;;;;;;69.57;26.37;;;;;;;;;;6227563;23;20170;-91
2021/11/14 20:03:17;;;;;;;84.70;27.10;;;;;;;;;;6262876;22;20175;-90
2021/11/14 20:06:23;;;;;;;80.17;27.50;;;;;;;;;;6247579;23;20231;-89
2021/11/14 20:09:29;;;;;;;76.73;26.23;;;;;;;;;;6245538;23;20633;-89
2021/11/14 20:12:34;;;;;;;77.10;27.30;;;;;;;;;;6245429;23;20189;-89
2021/11/14 20:15:42;;;;;;;77.70;22.63;;;;;;;;;;6244368;23;20257;-90
2021/11/14 20:18:50;;;;;;;77.67;24.33;;;;;;;;;;6244044;22;20151;-89
2021/11/14 20:21:55;;;;;;;86.30;24.73;;;;;;;;;;6244819;23;20234;-90
2021/11/14 20:25:02;;;;;;;105.23;27.47;;;;;;;;;;6244507;22;20174;-91
2021/11/14 20:28:08;;;;;;;93.40;30.50;;;;;;;;;;6245246;23;20194;-89
2021/11/14 20:31:16;;;;;;;74.23;26.03;;;;;;;;;;6246704;23;20198;-90
2021/11/14 20:37:57;;;;;;;79.10;24.57;;;;;;;;;;6244066;23;20197;-90
2021/11/14 20:41:03;;;;;;;79.63;25.00;;;;;;;;;;6244306;23;20182;-90
2021/11/14 20:44:08;;;;;;;93.33;23.27;;;;;;;;;;6244854;23;20190;-91
2021/11/14 20:47:15;;;;;;;90.17;23.80;;;;;;;;;;6246035;23;20190;-89
2021/11/14 20:50:20;;;;;;;119.60;23.47;;;;;;;;;;6246982;23;20195;-88
2021/11/14 20:53:28;;;;;;;62.73;24.10;;;;;;;;;;6246403;23;20190;-90
2021/11/14 20:56:33;;;;;;;164.97;26.07;;;;;;;;;;6244312;23;20170;-89
2021/11/14 20:59:40;;;;;;;84.30;23.53;;;;;;;;;;6245788;23;20274;-89
2021/11/14 21:02:47;;;;;;;82.33;23.37;;;;;;;;;;6244325;22;20174;-89
2021/11/14 21:05:53;;;;;;;75.03;22.37;;;;;;;;;;6245012;23;20182;-88
2021/11/14 21:08:58;;;;;;;75.83;22.60;;;;;;;;;;6246190;23;20170;-90
2021/11/14 21:12:03;;;;;;;55.27;20.93;;;;;;;;;;6243436;23;20206;-93
2021/11/14 21:15:10;;;;;;;58.60;22.07;;;;;;;;;;6242652;23;20162;-91
2021/11/14 21:18:17;;;;;;;62.17;21.33;;;;;;;;;;6244062;23;20198;-89
2021/11/14 21:21:22;;;;;;;55.37;21.30;;;;;;;;;;6244275;23;20166;-91
2021/11/14 21:24:32;;;;;;;55.93;21.73;;;;;;;;;;6244022;23;20186;-88
2021/11/14 21:27:38;;;;;;;49.70;20.57;;;;;;;;;;6243922;23;20194;-89
2021/11/14 21:30:43;;;;;;;59.80;21.93;;;;;;;;;;6244760;23;20200;-89
2021/11/14 21:34:02;;;;;;;53.07;20.93;;;;;;;;;;6245083;23;20186;-90
2021/11/14 21:40:33;;;;;;;52.27;21.90;;;;;;;;;;6243761;23;20171;-91
2021/11/14 21:43:39;;;;;;;57.07;22.07;;;;;;;;;;6245114;22;20193;-89
2021/11/14 21:46:45;;;;;;;50.63;20.53;;;;;;;;;;6244595;22;20617;-90
2021/11/14 21:49:52;;;;;;;50.60;19.87;;;;;;;;;;6245263;22;20166;-90
2021/11/14 21:52:57;;;;;;;49.23;20.53;;;;;;;;;;6246307;23;20178;-91
2021/11/14 21:56:03;;;;;;;57.10;21.53;;;;;;;;;;6245315;23;20171;-89
2021/11/14 21:59:10;;;;;;;65.00;23.73;;;;;;;;;;6244857;23;20217;-88
2021/11/14 22:02:19;;;;;;;51.83;20.77;;;;;;;;;;6244289;23;20178;-89
2021/11/14 22:05:26;;;;;;;48.87;20.00;;;;;;;;;;6248258;22;20169;-91
2021/11/14 22:08:32;;;;;;;58.23;22.17;;;;;;;;;;6244822;22;20163;-88
2021/11/14 22:11:37;;;;;;;49.10;19.53;;;;;;;;;;6244512;23;20186;-90
2021/11/14 22:14:43;;;;;;;44.80;18.10;;;;;;;;;;6244042;23;20209;-89
2021/11/14 22:17:49;;;;;;;49.60;18.43;;;;;;;;;;6242926;23;20170;-91
2021/11/14 22:20:56;;;;;;;44.73;18.47;;;;;;;;;;6243555;23;20170;-90
2021/11/14 22:24:01;;;;;;;54.60;20.23;;;;;;;;;;6241422;23;20170;-91
2021/11/14 22:27:07;;;;;;;48.93;20.47;;;;;;;;;;6242239;23;20166;-90
2021/11/14 22:30:14;;;;;;;51.43;18.80;;;;;;;;;;6244222;23;20166;-90
2021/11/14 22:33:21;;;;;;;41.97;18.33;;;;;;;;;;6243613;23;20183;-89
2021/11/14 22:36:28;;;;;;;45.70;18.60;;;;;;;;;;6243889;22;20514;-89
2021/11/14 22:39:33;;;;;;;46.90;19.57;;;;;;;;;;6242794;23;20166;-88
2021/11/14 22:42:39;;;;;;;47.00;19.87;;;;;;;;;;6242962;23;20166;-89
2021/11/14 22:45:49;;;;;;;44.40;19.17;;;;;;;;;;6241875;23;20358;-89
2021/11/14 22:48:54;;;;;;;44.17;18.70;;;;;;;;;;6242705;23;20171;-89
2021/11/14 22:52:01;;;;;;;39.30;17.97;;;;;;;;;;6241230;23;20241;-89
2021/11/14 22:55:07;;;;;;;38.80;16.20;;;;;;;;;;6240790;22;20501;-89
2021/11/14 22:58:12;;;;;;;39.77;16.83;;;;;;;;;;6240130;22;20166;-90
2021/11/14 23:01:20;;;;;;;37.17;16.43;;;;;;;;;;6240598;23;20222;-89
2021/11/14 23:04:25;;;;;;;36.50;15.93;;;;;;;;;;6243041;23;20177;-87
2021/11/14 23:07:31;;;;;;;37.33;16.40;;;;;;;;;;6241073;23;20158;-89
2021/11/14 23:10:36;;;;;;;33.60;15.97;;;;;;;;;;6242997;22;20157;-88
2021/11/14 23:13:45;;;;;;;31.10;14.93;;;;;;;;;;6243530;22;20248;-89
2021/11/14 23:16:52;;;;;;;40.20;17.10;;;;;;;;;;6244393;23;20158;-89
2021/11/14 23:19:57;;;;;;;36.10;15.50;;;;;;;;;;6242822;23;20213;-89
2021/11/14 23:23:04;;;;;;;33.20;15.70;;;;;;;;;;6244064;23;20179;-89
2021/11/14 23:26:09;;;;;;;32.30;15.27;;;;;;;;;;6244243;23;20171;-89
2021/11/14 23:29:15;;;;;;;31.30;14.17;;;;;;;;;;6244093;23;20166;-89
2021/11/14 23:32:20;;;;;;;29.13;13.80;;;;;;;;;;6244721;23;20194;-90
2021/11/14 23:35:26;;;;;;;33.67;14.27;;;;;;;;;;6245439;23;20491;-90
2021/11/14 23:38:33;;;;;;;30.53;14.20;;;;;;;;;;6243486;23;20188;-90
2021/11/14 23:41:45;;;;;;;41.63;17.27;;;;;;;;;;6242725;23;20162;-90
2021/11/14 23:44:51;;;;;;;33.03;15.20;;;;;;;;;;6242582;22;20634;-90
2021/11/14 23:47:56;;;;;;;33.03;14.67;;;;;;;;;;6243776;22;20223;-89
2021/11/14 23:51:02;;;;;;;33.10;14.53;;;;;;;;;;6242255;23;20261;-89
2021/11/14 23:54:08;;;;;;;34.13;15.53;;;;;;;;;;6242585;23;20174;-88
2021/11/14 23:57:15;;;;;;;34.20;14.77;;;;;;;;;;6242951;23;20154;-90
